createdAt,value
2022-11-13T00:01:18.645Z,102534.94
2022-11-13T00:03:46.531Z,102533.97
2022-11-13T00:06:15.402Z,102526.88
2022-11-13T00:08:43.668Z,102523.28
2022-11-13T00:11:14.813Z,102525.91
2022-11-13T00:13:43.071Z,102524.06
2022-11-13T00:16:12.788Z,102526.69
2022-11-13T00:18:42.757Z,102523.97
2022-11-13T00:21:14.006Z,102531.06
2022-11-13T00:23:41.844Z,102520.31
2022-11-13T00:26:12.959Z,102524.72
2022-11-13T00:28:41.155Z,102525.50
2022-11-13T00:31:10.166Z,102524.53
2022-11-13T00:34:05.407Z,102532.44
2022-11-13T00:36:28.747Z,102520.75
2022-11-13T00:38:56.833Z,102510.91
2022-11-13T00:41:25.374Z,102512.63
2022-11-13T00:43:53.313Z,102515.19
2022-11-13T00:46:21.357Z,102515.13
2022-11-13T00:48:49.094Z,102513.28
2022-11-13T00:51:16.828Z,102514.97
2022-11-13T00:53:45.906Z,102522.00
2022-11-13T00:56:13.734Z,102507.69
2022-11-13T00:58:41.478Z,102499.63
2022-11-13T01:01:12.328Z,102509.34
2022-11-13T01:03:40.715Z,102501.31
2022-11-13T01:06:13.442Z,102495.88
2022-11-13T01:08:41.196Z,102494.09
2022-11-13T01:11:12.119Z,102496.72
2022-11-13T01:13:40.449Z,102497.53
2022-11-13T01:16:10.979Z,102493.00
2022-11-13T01:18:39.080Z,102495.63
2022-11-13T01:21:09.498Z,102497.41
2022-11-13T01:23:37.401Z,102502.69
2022-11-13T01:26:06.949Z,102491.06
2022-11-13T01:28:36.082Z,102492.03
2022-11-13T01:31:06.344Z,102486.75
2022-11-13T01:33:34.152Z,102487.59
2022-11-13T01:36:02.782Z,102479.59
2022-11-13T01:38:35.769Z,102478.69
2022-11-13T01:41:03.879Z,102473.34
2022-11-13T01:43:33.482Z,102475.00
2022-11-13T01:46:15.351Z,102469.72
2022-11-13T01:48:46.722Z,102465.22
2022-11-13T01:51:19.888Z,102457.22
2022-11-13T01:53:49.065Z,102453.66
2022-11-13T01:56:18.220Z,102449.22
2022-11-13T01:58:50.002Z,102444.81
2022-11-13T02:01:19.171Z,102443.94
2022-11-13T02:03:46.907Z,102448.38
2022-11-13T02:06:15.095Z,102446.56
2022-11-13T02:08:44.422Z,102445.72
2022-11-13T02:11:12.537Z,102451.00
2022-11-13T02:13:40.842Z,102441.16
2022-11-13T02:16:11.354Z,102437.56
2022-11-13T02:18:41.359Z,102432.22
2022-11-13T02:21:19.466Z,102433.91
2022-11-13T02:23:54.336Z,102430.31
2022-11-13T02:26:27.461Z,102432.00
2022-11-13T02:28:55.273Z,102428.50
2022-11-13T02:31:22.938Z,102425.91
2022-11-13T02:33:50.636Z,102428.56
2022-11-13T02:36:22.183Z,102422.38
2022-11-13T02:38:51.395Z,102427.72
2022-11-13T02:41:19.145Z,102421.44
2022-11-13T02:43:48.266Z,102429.44
2022-11-13T02:46:15.949Z,102425.97
2022-11-13T02:48:43.620Z,102427.69
2022-11-13T02:51:11.337Z,102423.25
2022-11-13T02:53:39.069Z,102418.78
2022-11-13T02:56:07.494Z,102418.78
2022-11-13T02:58:35.341Z,102414.34
2022-11-13T03:01:05.149Z,102416.03
2022-11-13T03:03:56.408Z,102413.34
2022-11-13T03:06:20.536Z,102412.31
2022-11-13T03:08:48.426Z,102414.03
2022-11-13T03:11:16.130Z,102401.44
2022-11-13T03:13:43.828Z,102404.97
2022-11-13T03:16:14.841Z,102401.44
2022-11-13T03:18:42.754Z,102404.09
2022-11-13T03:21:13.083Z,102392.56
2022-11-13T03:23:44.991Z,102393.38
2022-11-13T03:26:15.770Z,102397.75
2022-11-13T03:28:44.302Z,102387.94
2022-11-13T03:31:14.124Z,102395.91
2022-11-13T03:33:42.018Z,102390.50
2022-11-13T03:36:09.958Z,102383.25
2022-11-13T03:38:37.956Z,102387.59
2022-11-13T03:41:06.144Z,102385.88
2022-11-13T03:43:33.841Z,102385.88
2022-11-13T03:46:01.596Z,102380.50
2022-11-13T03:48:30.922Z,102377.84
2022-11-13T03:50:58.957Z,102372.53
2022-11-13T03:53:26.954Z,102379.53
2022-11-13T03:55:54.658Z,102379.53
2022-11-13T03:58:22.376Z,102380.25
2022-11-13T04:00:51.720Z,102372.22
2022-11-13T04:03:20.103Z,102370.38
2022-11-13T04:05:51.068Z,102373.09
2022-11-13T04:08:19.396Z,102368.66
2022-11-13T04:10:47.229Z,102363.25
2022-11-13T04:13:15.020Z,102369.38
2022-11-13T04:15:45.114Z,102370.16
2022-11-13T04:18:13.009Z,102367.28
2022-11-13T04:20:40.699Z,102362.78
2022-11-13T04:23:12.601Z,102364.44
2022-11-13T04:25:40.370Z,102359.91
2022-11-13T04:28:08.093Z,102365.16
2022-11-13T04:30:35.758Z,102357.94
2022-11-13T04:33:03.481Z,102364.91
2022-11-13T04:35:31.185Z,102357.78
2022-11-13T04:37:58.857Z,102348.84
2022-11-13T04:40:27.943Z,102362.09
2022-11-13T04:42:54.645Z,102355.75
2022-11-13T04:45:27.438Z,102356.56
2022-11-13T04:47:55.213Z,102351.09
2022-11-13T04:50:23.353Z,102358.16
2022-11-13T04:52:51.398Z,102362.50
2022-11-13T04:55:19.179Z,102358.72
2022-11-13T04:57:51.463Z,102360.50
2022-11-13T05:00:19.710Z,102349.81
2022-11-13T05:02:47.461Z,102349.72
2022-11-13T05:05:15.180Z,102351.50
2022-11-13T05:07:43.480Z,102352.38
2022-11-13T05:10:11.217Z,102353.19
2022-11-13T05:12:38.884Z,102348.63
2022-11-13T05:15:09.273Z,102352.03
2022-11-13T05:17:37.074Z,102351.03
2022-11-13T05:20:05.421Z,102344.63
2022-11-13T05:22:33.097Z,102335.63
2022-11-13T05:25:00.851Z,102344.47
2022-11-13T05:27:28.519Z,102350.63
2022-11-13T05:29:56.262Z,102341.72
2022-11-13T05:32:25.357Z,102340.72
2022-11-13T05:34:53.093Z,102337.16
2022-11-13T05:37:20.898Z,102329.94
2022-11-13T05:39:48.631Z,102326.41
2022-11-13T05:42:16.387Z,102333.38
2022-11-13T05:44:44.271Z,102327.97
2022-11-13T05:47:11.943Z,102324.38
2022-11-13T05:49:41.029Z,102322.56
2022-11-13T05:52:08.774Z,102318.06
2022-11-13T05:54:37.066Z,102302.81
2022-11-13T05:57:04.943Z,102312.50
2022-11-13T05:59:32.671Z,102303.53
2022-11-13T06:02:02.510Z,102301.72
2022-11-13T06:04:30.261Z,102303.44
2022-11-13T06:06:59.362Z,102306.91
2022-11-13T06:09:27.130Z,102291.81
2022-11-13T06:11:54.779Z,102295.31
2022-11-13T06:14:22.449Z,102297.91
2022-11-13T06:16:50.154Z,102289.84
2022-11-13T06:19:17.855Z,102286.28
2022-11-13T06:21:45.548Z,102281.81
2022-11-13T06:24:14.834Z,102281.75
2022-11-13T06:26:42.854Z,102287.94
2022-11-13T06:29:12.997Z,102288.00
2022-11-13T06:31:40.835Z,102281.66
2022-11-13T06:34:08.798Z,102283.44
2022-11-13T06:36:38.113Z,102284.31
2022-11-13T06:39:07.605Z,102272.88
2022-11-13T06:41:38.247Z,102282.63
2022-11-13T06:44:06.372Z,102276.41
2022-11-13T06:46:34.359Z,102277.16
2022-11-13T06:49:02.086Z,102278.91
2022-11-13T06:51:31.401Z,102270.84
2022-11-13T06:53:59.433Z,102269.97
2022-11-13T06:56:27.561Z,102273.47
2022-11-13T06:58:56.953Z,102271.66
2022-11-13T07:01:26.717Z,102270.72
2022-11-13T07:03:54.737Z,102275.97
2022-11-13T07:06:24.267Z,102269.69
2022-11-13T07:08:52.480Z,102262.56
2022-11-13T07:11:22.339Z,102260.00
2022-11-13T07:13:50.514Z,102253.88
2022-11-13T07:16:19.984Z,102248.56
2022-11-13T07:18:51.751Z,102263.63
2022-11-13T07:21:20.057Z,102263.69
2022-11-13T07:23:49.457Z,102254.88
2022-11-13T07:26:17.333Z,102251.38
2022-11-13T07:28:45.112Z,102261.13
2022-11-13T07:31:14.256Z,102256.75
2022-11-13T07:33:43.977Z,102252.44
2022-11-13T07:36:12.073Z,102247.22
2022-11-13T07:38:39.852Z,102242.88
2022-11-13T07:41:08.381Z,102241.22
2022-11-13T07:43:36.105Z,102238.59
2022-11-13T07:46:03.889Z,102240.41
2022-11-13T07:48:32.026Z,102242.28
2022-11-13T07:51:02.867Z,102238.81
2022-11-13T07:53:30.821Z,102233.63
2022-11-13T07:56:02.177Z,102238.19
2022-11-13T07:58:30.460Z,102234.69
2022-11-13T08:01:03.224Z,102226.84
2022-11-13T08:03:30.958Z,102229.69
2022-11-13T08:06:03.547Z,102231.50
2022-11-13T08:08:31.641Z,102221.94
2022-11-13T08:10:59.591Z,102231.03
2022-11-13T08:13:27.356Z,102224.16
2022-11-13T08:15:55.074Z,102224.34
2022-11-13T08:18:22.800Z,102216.59
2022-11-13T08:20:50.552Z,102218.56
2022-11-13T08:23:19.693Z,102217.13
2022-11-13T08:25:47.606Z,102223.66
2022-11-13T08:28:15.559Z,102221.38
2022-11-13T08:30:45.026Z,102215.47
2022-11-13T08:33:12.872Z,102218.50
2022-11-13T08:35:40.583Z,102214.38
2022-11-13T08:38:10.131Z,102213.72
2022-11-13T08:40:39.357Z,102217.50
2022-11-13T08:43:07.111Z,102217.69
2022-11-13T08:45:34.851Z,102203.69
2022-11-13T08:48:03.095Z,102206.56
2022-11-13T08:50:32.072Z,102201.44
2022-11-13T08:53:01.381Z,102196.28
2022-11-13T08:55:29.587Z,102188.44
2022-11-13T08:58:01.821Z,102188.66
2022-11-13T09:00:30.904Z,102189.72
2022-11-13T09:02:59.865Z,102182.78
2022-11-13T09:05:27.927Z,102175.00
2022-11-13T09:07:58.138Z,102168.09
2022-11-13T09:10:26.937Z,102167.41
2022-11-13T09:12:59.061Z,102155.13
2022-11-13T09:15:28.839Z,102157.97
2022-11-13T09:18:00.592Z,102164.38
2022-11-13T09:20:29.118Z,102161.88
2022-11-13T09:23:00.612Z,102158.47
2022-11-13T09:25:35.835Z,102148.88
2022-11-13T09:28:05.623Z,102148.97
2022-11-13T09:30:34.814Z,102145.53
2022-11-13T09:33:02.878Z,102149.28
2022-11-13T09:35:35.088Z,102147.69
2022-11-13T09:38:07.870Z,102138.13
2022-11-13T09:40:42.978Z,102137.38
2022-11-13T09:43:22.468Z,102130.44
2022-11-13T09:45:54.028Z,102139.47
2022-11-13T09:48:30.195Z,102143.19
2022-11-13T09:51:00.647Z,102143.28
2022-11-13T09:53:35.456Z,102142.53
2022-11-13T09:56:16.027Z,102148.03
2022-11-13T09:58:47.991Z,102148.19
2022-11-13T10:01:27.168Z,102142.03
2022-11-13T10:04:04.212Z,102140.38
2022-11-13T10:06:47.835Z,102134.28
2022-11-13T10:09:26.161Z,102130.88
2022-11-13T10:11:56.675Z,102130.16
2022-11-13T10:14:30.267Z,102127.59
2022-11-13T10:17:04.617Z,102131.28
2022-11-13T10:19:43.658Z,102133.16
2022-11-13T10:22:34.116Z,102129.72
2022-11-13T10:25:11.665Z,102126.25
2022-11-13T10:27:39.771Z,102125.44
2022-11-13T10:30:15.199Z,102120.13
2022-11-13T10:32:45.365Z,102116.66
2022-11-13T10:35:38.187Z,102119.44
2022-11-13T10:38:09.165Z,102115.97
2022-11-13T10:40:39.607Z,102114.25
2022-11-13T10:43:15.282Z,102112.53
2022-11-13T10:45:43.698Z,102111.66
2022-11-13T10:48:22.331Z,102107.25
2022-11-13T10:50:58.752Z,102105.50
2022-11-13T10:53:28.918Z,102100.19
2022-11-13T10:55:58.661Z,102100.22
2022-11-13T10:58:27.042Z,102098.47
2022-11-13T11:00:54.994Z,102091.34
2022-11-13T11:03:25.803Z,102091.41
2022-11-13T11:05:55.490Z,102079.81
2022-11-13T11:08:27.492Z,102080.72
2022-11-13T11:11:16.343Z,102074.47
2022-11-13T11:13:44.658Z,102070.00
2022-11-13T11:16:19.292Z,102064.66
2022-11-13T11:18:53.882Z,102052.13
2022-11-13T11:21:24.821Z,102048.53
2022-11-13T11:23:58.817Z,102056.63
2022-11-13T11:26:33.639Z,102044.06
2022-11-13T11:29:17.578Z,102050.34
2022-11-13T11:31:51.466Z,102044.06
2022-11-13T11:34:25.449Z,102038.69
2022-11-13T11:36:58.753Z,102039.59
2022-11-13T11:39:30.621Z,102034.22
2022-11-13T11:42:06.855Z,102039.56
2022-11-13T11:44:43.698Z,102030.63
2022-11-13T11:47:16.099Z,102027.91
2022-11-13T11:49:46.379Z,102020.75
2022-11-13T11:52:30.209Z,102009.09
2022-11-13T11:55:08.496Z,102009.06
2022-11-13T11:57:49.573Z,102004.56
2022-11-13T12:00:19.693Z,102002.72
2022-11-13T12:03:14.927Z,101994.66
2022-11-13T12:05:56.331Z,102003.59
2022-11-13T12:08:35.112Z,101992.81
2022-11-13T12:11:12.843Z,101985.59
2022-11-13T12:13:51.547Z,101987.38
2022-11-13T12:16:25.520Z,101988.22
2022-11-13T12:19:01.540Z,101984.63
2022-11-13T12:21:40.718Z,101982.84
2022-11-13T12:24:43.577Z,101980.13
2022-11-13T12:27:22.393Z,101974.69
2022-11-13T12:30:02.561Z,101962.16
2022-11-13T12:32:45.595Z,101962.06
2022-11-13T12:35:17.832Z,101958.41
2022-11-13T12:37:53.688Z,101944.91
2022-11-13T12:40:29.385Z,101942.13
2022-11-13T12:43:08.382Z,101936.72
2022-11-13T12:45:50.832Z,101929.50
2022-11-13T12:48:28.006Z,101928.63
2022-11-13T12:51:01.347Z,101924.13
2022-11-13T12:53:32.609Z,101932.16
2022-11-13T12:56:02.685Z,101916.81
2022-11-13T12:58:32.652Z,101915.81
2022-11-13T13:01:06.735Z,101905.88
2022-11-13T13:04:03.383Z,101897.72
2022-11-13T13:06:47.474Z,101892.28
2022-11-13T13:09:31.131Z,101898.56
2022-11-13T13:12:07.982Z,101893.19
2022-11-13T13:15:04.148Z,101885.97
2022-11-13T13:17:31.853Z,101876.06
2022-11-13T13:20:01.513Z,101866.22
2022-11-13T13:22:33.169Z,101867.13
2022-11-13T13:25:05.267Z,101868.97
2022-11-13T13:27:38.464Z,101858.22
2022-11-13T13:30:21.913Z,101856.41
2022-11-13T13:32:58.709Z,101846.47
2022-11-13T13:35:31.630Z,101840.19
2022-11-13T13:38:07.019Z,101846.47
2022-11-13T13:40:42.239Z,101841.09
2022-11-13T13:43:29.320Z,101837.50
2022-11-13T13:46:05.815Z,101829.41
2022-11-13T13:48:37.751Z,101830.25
2022-11-13T13:51:12.864Z,101831.03
2022-11-13T13:53:40.585Z,101830.09
2022-11-13T13:56:13.295Z,101826.47
2022-11-13T13:58:41.723Z,101820.25
2022-11-13T14:01:19.671Z,101826.59
2022-11-13T14:03:48.150Z,101825.63
2022-11-13T14:06:21.075Z,101812.16
2022-11-13T14:08:49.376Z,101819.41
2022-11-13T14:11:20.462Z,101804.19
2022-11-13T14:13:49.505Z,101805.97
2022-11-13T14:16:17.212Z,101805.88
2022-11-13T14:18:45.012Z,101803.19
2022-11-13T14:21:16.616Z,101806.78
2022-11-13T14:23:47.996Z,101805.94
2022-11-13T14:26:16.196Z,101805.09
2022-11-13T14:28:53.386Z,101805.16
2022-11-13T14:31:26.470Z,101810.59
2022-11-13T14:33:54.376Z,101806.13
2022-11-13T14:36:29.866Z,101812.44
2022-11-13T14:38:58.201Z,101809.75
2022-11-13T14:41:32.868Z,101808.06
2022-11-13T14:44:02.837Z,101813.56
2022-11-13T14:46:32.944Z,101807.34
2022-11-13T14:49:00.942Z,101807.38
2022-11-13T14:51:30.718Z,101806.56
2022-11-13T14:54:07.447Z,101813.84
2022-11-13T14:56:40.292Z,101810.34
2022-11-13T14:59:14.444Z,101801.41
2022-11-13T15:01:55.225Z,101804.16
2022-11-13T15:04:23.372Z,101796.16
2022-11-13T15:06:58.007Z,101798.03
2022-11-13T15:09:26.373Z,101791.84
2022-11-13T15:11:54.125Z,101787.41
2022-11-13T15:14:23.761Z,101779.34
2022-11-13T15:16:53.672Z,101781.16
2022-11-13T15:19:28.205Z,101779.41
2022-11-13T15:22:25.092Z,101780.38
2022-11-13T15:24:44.217Z,101776.91
2022-11-13T15:27:14.947Z,101769.81
2022-11-13T15:29:44.537Z,101765.34
2022-11-13T15:32:13.969Z,101766.25
2022-11-13T15:34:41.685Z,101761.78
2022-11-13T15:37:13.872Z,101766.31
2022-11-13T15:39:41.583Z,101767.25
2022-11-13T15:42:14.464Z,101769.06
2022-11-13T15:44:42.251Z,101763.75
2022-11-13T15:47:29.648Z,101766.47
2022-11-13T15:50:13.005Z,101765.63
2022-11-13T15:52:48.679Z,101768.34
2022-11-13T15:55:29.955Z,101770.19
2022-11-13T15:57:59.105Z,101769.34
2022-11-13T16:00:28.527Z,101763.13
2022-11-13T16:03:01.183Z,101767.66
2022-11-13T16:05:31.572Z,101760.50
2022-11-13T16:07:59.305Z,101756.94
2022-11-13T16:10:27.381Z,101748.00
2022-11-13T16:12:55.401Z,101751.59
2022-11-13T16:15:23.267Z,101743.59
2022-11-13T16:17:53.675Z,101749.84
2022-11-13T16:20:22.749Z,101752.56
2022-11-13T16:22:50.617Z,101747.22
2022-11-13T16:25:20.313Z,101735.63
2022-11-13T16:27:48.662Z,101734.72
2022-11-13T16:30:20.047Z,101724.03
2022-11-13T16:32:48.555Z,101724.03
2022-11-13T16:35:17.577Z,101723.13
2022-11-13T16:37:47.291Z,101723.16
2022-11-13T16:40:21.701Z,101711.50
2022-11-13T16:42:49.395Z,101708.84
2022-11-13T16:45:18.090Z,101704.38
2022-11-13T16:47:46.422Z,101701.72
2022-11-13T16:50:17.097Z,101704.41
2022-11-13T16:52:46.199Z,101705.31
2022-11-13T16:55:14.043Z,101699.03
2022-11-13T16:57:42.348Z,101695.47
2022-11-13T17:00:15.207Z,101699.94
2022-11-13T17:02:43.155Z,101700.84
2022-11-13T17:05:13.565Z,101693.66
2022-11-13T17:07:41.449Z,101689.19
2022-11-13T17:13:01.685Z,101682.03
2022-11-13T17:15:29.423Z,101681.13
2022-11-13T17:17:58.747Z,101682.03
2022-11-13T17:20:26.629Z,101686.47
2022-11-13T17:22:54.289Z,101682.94
2022-11-13T17:25:26.476Z,101680.25
2022-11-13T17:27:54.301Z,101680.25
2022-11-13T17:30:22.046Z,101675.78
2022-11-13T17:32:49.798Z,101667.72
2022-11-13T17:35:17.711Z,101670.41
2022-11-13T17:37:45.391Z,101676.63
2022-11-13T17:40:13.248Z,101680.22
2022-11-13T17:42:43.147Z,101668.59
2022-11-13T17:45:11.591Z,101670.34
2022-11-13T17:47:39.393Z,101665.00
2022-11-13T17:50:08.104Z,101669.47
2022-11-13T17:52:35.918Z,101666.78
2022-11-13T17:55:06.072Z,101665.88
2022-11-13T17:57:34.382Z,101664.97
2022-11-13T18:00:04.830Z,101673.88
2022-11-13T18:02:34.112Z,101659.59
2022-11-13T18:05:04.181Z,101655.16
2022-11-13T18:07:32.427Z,101656.03
2022-11-13T18:10:00.148Z,101655.09
2022-11-13T18:12:27.899Z,101650.63
2022-11-13T18:14:55.706Z,101644.38
2022-11-13T18:17:26.669Z,101642.59
2022-11-13T18:20:01.339Z,101650.63
2022-11-13T18:22:29.972Z,101643.53
2022-11-13T18:24:57.759Z,101652.44
2022-11-13T18:27:26.037Z,101636.38
2022-11-13T18:29:53.740Z,101629.25
2022-11-13T18:32:21.669Z,101633.69
2022-11-13T18:34:50.888Z,101633.69
2022-11-13T18:37:18.663Z,101631.00
2022-11-13T18:39:46.470Z,101621.22
2022-11-13T18:42:14.214Z,101623.88
2022-11-13T18:44:42.024Z,101629.22
2022-11-13T18:47:09.774Z,101625.66
2022-11-13T18:49:37.666Z,101620.28
2022-11-13T18:52:08.199Z,101616.72
2022-11-13T18:54:36.087Z,101616.72
2022-11-13T18:57:04.182Z,101611.38
2022-11-13T18:59:32.537Z,101606.03
2022-11-13T19:02:00.493Z,101606.91
2022-11-13T19:04:28.323Z,101600.69
2022-11-13T19:06:56.102Z,101603.34
2022-11-13T19:09:25.267Z,101594.47
2022-11-13T19:11:55.085Z,101598.00
2022-11-13T19:14:22.802Z,101593.53
2022-11-13T19:16:50.513Z,101591.72
2022-11-13T19:19:22.264Z,101589.03
2022-11-13T19:21:51.229Z,101597.94
2022-11-13T19:24:19.027Z,101605.94
2022-11-13T19:26:52.367Z,101611.28
2022-11-13T19:29:20.557Z,101608.59
2022-11-13T19:31:48.764Z,101612.16
2022-11-13T19:34:16.631Z,101605.03
2022-11-13T19:36:45.089Z,101604.13
2022-11-13T19:39:13.483Z,101600.53
2022-11-13T19:41:41.237Z,101598.72
2022-11-13T19:44:10.944Z,101599.63
2022-11-13T19:46:38.668Z,101596.97
2022-11-13T19:49:06.967Z,101605.88
2022-11-13T19:51:34.696Z,101598.72
2022-11-13T19:54:02.436Z,101588.03
2022-11-13T19:56:30.226Z,101593.38
2022-11-13T19:58:57.913Z,101595.19
2022-11-13T20:01:28.839Z,101590.75
2022-11-13T20:03:57.536Z,101589.91
2022-11-13T20:06:26.441Z,101584.56
2022-11-13T20:08:54.162Z,101590.78
2022-11-13T20:11:21.912Z,101589.03
2022-11-13T20:13:49.762Z,101576.56
2022-11-13T20:16:20.848Z,101572.09
2022-11-13T20:18:50.610Z,101573.88
2022-11-13T20:21:24.475Z,101561.38
2022-11-13T20:23:53.028Z,101552.44
2022-11-13T20:26:20.733Z,101561.38
2022-11-13T20:28:48.453Z,101562.25
2022-11-13T20:31:19.515Z,101556.91
2022-11-13T20:33:49.341Z,101552.44
2022-11-13T20:36:18.568Z,101550.63
2022-11-13T20:38:50.540Z,101556.88
2022-11-13T20:41:20.530Z,101554.16
2022-11-13T20:43:48.963Z,101545.25
2022-11-13T20:46:18.430Z,101548.78
2022-11-13T20:48:46.615Z,101551.44
2022-11-13T20:51:17.339Z,101548.75
2022-11-13T20:53:45.050Z,101544.28
2022-11-13T20:56:13.137Z,101538.91
2022-11-13T20:58:42.967Z,101547.78
2022-11-13T21:01:12.679Z,101545.97
2022-11-13T21:03:45.197Z,101533.47
2022-11-13T21:06:15.731Z,101532.53
2022-11-13T21:08:45.521Z,101529.84
2022-11-13T21:11:16.539Z,101531.59
2022-11-13T21:13:44.473Z,101540.50
2022-11-13T21:16:12.399Z,101544.03
2022-11-13T21:18:40.134Z,101529.75
2022-11-13T21:21:10.239Z,101532.38
2022-11-13T21:23:38.585Z,101530.56
2022-11-13T21:26:09.195Z,101531.47
2022-11-13T21:28:37.497Z,101522.56
2022-11-13T21:31:07.290Z,101522.56
2022-11-13T21:33:37.664Z,101522.56
2022-11-13T21:36:06.700Z,101527.91
2022-11-13T21:38:34.749Z,101522.53
2022-11-13T21:41:21.447Z,101522.53
2022-11-13T21:43:51.278Z,101521.63
2022-11-13T21:46:20.232Z,101513.59
2022-11-13T21:48:48.068Z,101515.38
2022-11-13T21:51:15.928Z,101510.03
2022-11-13T21:53:43.899Z,101510.91
2022-11-13T21:56:15.655Z,101514.44
2022-11-13T21:58:44.465Z,101511.78
2022-11-13T22:01:14.362Z,101507.34
2022-11-13T22:03:42.339Z,101505.56
2022-11-13T22:06:17.227Z,101504.63
2022-11-13T22:08:46.117Z,101503.75
2022-11-13T22:11:14.314Z,101493.03
2022-11-13T22:13:41.998Z,101497.47
2022-11-13T22:16:12.194Z,101504.56
2022-11-13T22:18:41.416Z,101495.63
2022-11-13T22:21:11.863Z,101500.03
2022-11-13T22:23:39.826Z,101507.09
2022-11-13T22:26:09.204Z,101500.00
2022-11-13T22:28:38.608Z,101504.44
2022-11-13T22:31:07.432Z,101505.25
2022-11-13T22:33:37.111Z,101500.81
2022-11-13T22:36:08.630Z,101495.44
2022-11-13T22:38:37.193Z,101505.19
2022-11-13T22:41:06.438Z,101498.94
2022-11-13T22:43:35.560Z,101496.25
2022-11-13T22:46:05.013Z,101494.44
2022-11-13T22:48:33.162Z,101490.84
2022-11-13T22:51:07.731Z,101481.94
2022-11-13T22:53:35.443Z,101481.94
2022-11-13T22:56:04.651Z,101484.56
2022-11-13T22:58:32.470Z,101475.63
2022-11-13T23:01:07.559Z,101483.59
2022-11-13T23:03:38.371Z,101484.50
2022-11-13T23:06:08.726Z,101472.88
2022-11-13T23:08:38.882Z,101460.44
2022-11-13T23:11:07.554Z,101465.72
2022-11-13T23:13:35.613Z,101465.75
2022-11-13T23:16:03.804Z,101453.28
2022-11-13T23:18:32.601Z,101466.59
2022-11-13T23:21:03.393Z,101462.06
2022-11-13T23:23:33.049Z,101449.59
2022-11-13T23:26:03.411Z,101453.13
2022-11-13T23:28:31.810Z,101454.03
2022-11-13T23:30:59.822Z,101452.22
2022-11-13T23:33:27.753Z,101458.38
2022-11-13T23:35:55.474Z,101445.00
2022-11-13T23:38:23.476Z,101447.59
2022-11-13T23:40:55.881Z,101442.25
2022-11-13T23:43:36.477Z,101434.25
2022-11-13T23:46:12.190Z,101439.59
2022-11-13T23:48:40.312Z,101440.44
2022-11-13T23:51:08.307Z,101438.63
2022-11-13T23:53:36.003Z,101435.94
2022-11-13T23:56:05.608Z,101432.31
2022-11-13T23:58:33.634Z,101427.91
